Time;durP1;ratioP1;P1;durP2;ratioP2;P2;SDS_P1;SDS_P2;PMS_P1;PMS_P2;Temp;Humidity;BMP_temperature;BMP_pressure;BME280_temperature;BME280_humidity;BME280_pressure;Samples;Min_cycle;Max_cycle;Signal;HPM_P1;HPM_P2
2023/09/16 00:02:20;;;;;;;13.52;10.85;;;;;;;18.64;73.66;95134.63;5038114;28;20033;-77
2023/09/16 00:04:46;;;;;;;12.18;10.75;;;;;;;18.65;74.25;95140.72;5071152;28;20028;-77
2023/09/16 00:07:13;;;;;;;11.68;10.10;;;;;;;18.47;74.09;95115.44;5038507;28;20383;-76
2023/09/16 00:09:40;;;;;;;12.07;10.70;;;;;;;18.50;75.02;95136.16;5054185;28;20090;-77
2023/09/16 00:12:06;;;;;;;11.70;10.45;;;;;;;18.77;75.16;95141.19;5055201;28;20493;-77
2023/09/16 00:14:31;;;;;;;11.05;9.90;;;;;;;18.97;75.01;95126.63;5054288;28;20048;-77
2023/09/16 00:17:00;;;;;;;14.55;11.23;;;;;;;18.92;75.45;95126.34;5054845;28;20475;-77
2023/09/16 00:19:25;;;;;;;12.13;10.65;;;;;;;18.72;74.68;95115.34;5038788;28;20127;-77
2023/09/16 00:21:51;;;;;;;12.00;10.60;;;;;;;18.68;75.27;95117.50;5054505;28;20309;-76
2023/09/16 00:24:18;;;;;;;12.30;11.00;;;;;;;18.57;75.22;95112.63;5037633;28;20033;-76
2023/09/16 00:26:43;;;;;;;13.75;10.73;;;;;;;18.83;75.54;95135.25;5071130;28;20029;-76
2023/09/16 00:29:09;;;;;;;13.80;10.80;;;;;;;18.74;75.21;95114.22;5070762;28;20128;-76
2023/09/16 00:31:36;;;;;;;13.20;11.30;;;;;;;18.61;75.86;95123.59;5054244;28;20103;-76
2023/09/16 00:34:02;;;;;;;13.10;11.15;;;;;;;18.56;75.95;95112.81;5037439;28;20072;-76
2023/09/16 00:36:28;;;;;;;12.23;10.88;;;;;;;18.17;76.93;95116.16;5037596;28;20475;-76
2023/09/16 00:38:54;;;;;;;12.50;11.20;;;;;;;17.91;78.08;95116.31;5037535;28;20040;-76
2023/09/16 00:41:19;;;;;;;12.88;11.65;;;;;;;18.03;77.37;95113.22;5054106;28;20032;-76
2023/09/16 00:43:45;;;;;;;14.57;11.95;;;;;;;18.10;77.45;95108.09;5053776;28;20033;-76
2023/09/16 00:46:10;;;;;;;12.88;11.57;;;;;;;17.93;78.12;95106.47;5053822;28;20468;-76
2023/09/16 00:48:36;;;;;;;13.48;12.07;;;;;;;17.95;78.50;95120.28;5037469;28;20033;-77
2023/09/16 00:51:02;;;;;;;14.90;12.27;;;;;;;17.92;78.98;95125.88;5037117;28;20059;-76
2023/09/16 00:53:28;;;;;;;14.35;12.50;;;;;;;17.98;79.14;95120.75;5037032;28;20571;-77
2023/09/16 00:55:53;;;;;;;14.10;12.55;;;;;;;17.95;78.94;95125.53;5053692;28;20035;-77
2023/09/16 00:58:19;;;;;;;14.20;12.32;;;;;;;17.95;78.54;95128.16;5037328;28;20070;-76
2023/09/16 01:00:45;;;;;;;13.80;12.18;;;;;;;18.05;78.34;95128.78;5037061;28;20016;-76
2023/09/16 01:03:11;;;;;;;13.40;12.07;;;;;;;18.09;78.19;95132.75;5053447;28;20051;-76
2023/09/16 01:05:36;;;;;;;14.45;12.43;;;;;;;17.97;78.40;95116.50;5053329;28;20482;-76
2023/09/16 01:08:02;;;;;;;16.70;13.00;;;;;;;18.04;78.74;95129.78;5053557;28;20059;-76
2023/09/16 01:10:28;;;;;;;13.35;11.65;;;;;;;18.01;78.57;95130.13;5053398;28;20029;-76
2023/09/16 01:12:54;;;;;;;12.55;11.25;;;;;;;18.02;78.23;95116.81;5053451;28;20028;-76
2023/09/16 01:15:22;;;;;;;15.32;12.50;;;;;;;18.03;78.14;95131.59;5053599;28;20020;-76
2023/09/16 01:18:10;;;;;;;12.85;11.55;;;;;;;17.90;78.48;95119.94;5053951;28;20117;-76
2023/09/16 01:20:38;;;;;;;15.55;11.82;;;;;;;17.76;78.26;95095.94;5037187;28;20043;-76
2023/09/16 01:23:04;;;;;;;14.68;11.73;;;;;;;17.92;78.83;95099.59;5053772;28;20043;-76
2023/09/16 01:25:30;;;;;;;14.57;12.32;;;;;;;18.02;78.52;95106.28;5069914;28;20418;-76
2023/09/16 01:27:56;;;;;;;15.40;12.38;;;;;;;17.86;78.50;95088.75;5069937;28;20035;-76
2023/09/16 01:30:21;;;;;;;14.77;12.63;;;;;;;17.77;78.53;95083.63;5036847;28;20043;-76
2023/09/16 01:32:52;;;;;;;12.70;11.40;;;;;;;18.01;78.35;95093.34;5036832;28;20086;-76
2023/09/16 01:35:18;;;;;;;14.23;11.65;;;;;;;17.93;78.26;95096.78;5070050;28;20487;-76
2023/09/16 01:37:45;;;;;;;14.20;12.00;;;;;;;17.93;78.32;95080.19;5036754;28;20035;-76
2023/09/16 01:40:11;;;;;;;13.63;12.18;;;;;;;17.80;78.15;95078.91;5036747;28;20029;-76
2023/09/16 01:42:36;;;;;;;13.55;12.15;;;;;;;17.89;78.05;95100.75;5036807;28;20067;-76
2023/09/16 01:45:02;;;;;;;12.95;11.52;;;;;;;17.91;77.60;95103.19;5069588;28;20025;-76
2023/09/16 01:47:28;;;;;;;13.40;11.95;;;;;;;17.83;77.89;95107.47;5053314;28;20028;-76
2023/09/16 01:49:53;;;;;;;13.13;11.73;;;;;;;17.81;77.81;95108.63;5069513;28;20048;-76
2023/09/16 01:52:19;;;;;;;15.15;12.55;;;;;;;17.77;77.95;95086.25;5036583;28;20052;-76
2023/09/16 01:54:44;;;;;;;14.85;11.93;;;;;;;17.85;77.91;95100.22;5069534;28;20031;-76
2023/09/16 01:57:10;;;;;;;14.20;12.10;;;;;;;17.78;78.04;95108.91;5053030;28;20025;-76
2023/09/16 01:59:35;;;;;;;12.63;11.25;;;;;;;17.95;77.90;95120.28;5070871;28;20075;-76
2023/09/16 02:02:01;;;;;;;13.93;11.77;;;;;;;17.94;77.95;95118.63;5069732;28;20025;-76
2023/09/16 02:04:26;;;;;;;14.75;11.93;;;;;;;17.83;77.97;95104.03;5069457;28;20036;-76
2023/09/16 02:06:51;;;;;;;14.95;11.63;;;;;;;17.91;78.02;95114.50;5053061;28;20013;-76
2023/09/16 02:09:17;;;;;;;14.77;12.60;;;;;;;17.92;77.90;95116.19;5069608;28;20037;-76
2023/09/16 02:11:42;;;;;;;12.65;11.35;;;;;;;17.78;78.16;95130.78;5036340;28;20036;-76
2023/09/16 02:14:12;;;;;;;15.43;12.18;;;;;;;17.62;78.79;95120.22;5070456;28;20032;-76
2023/09/16 02:16:37;;;;;;;15.43;12.35;;;;;;;17.68;79.15;95130.09;5036378;28;20035;-76
2023/09/16 02:19:03;;;;;;;13.68;12.25;;;;;;;17.90;78.76;95127.84;5052859;28;20489;-76
2023/09/16 02:21:29;;;;;;;14.05;11.73;;;;;;;17.87;78.58;95134.25;5052885;28;20494;-76
2023/09/16 02:23:54;;;;;;;15.23;12.57;;;;;;;17.75;79.08;95130.28;5052499;28;20046;-76
2023/09/16 02:26:20;;;;;;;13.85;12.35;;;;;;;17.77;79.05;95129.09;5069433;28;20036;-76
2023/09/16 02:28:45;;;;;;;14.90;12.40;;;;;;;17.72;78.94;95128.78;5052649;28;20060;-76
2023/09/16 02:31:11;;;;;;;14.20;12.60;;;;;;;17.65;78.98;95119.91;5069179;28;20379;-76
2023/09/16 02:33:36;;;;;;;13.75;12.13;;;;;;;17.50;78.83;95097.91;5037679;28;20036;-76
2023/09/16 02:36:02;;;;;;;14.18;12.05;;;;;;;17.77;79.06;95129.09;5056277;28;20102;-76
2023/09/16 02:38:28;;;;;;;14.00;12.68;;;;;;;17.68;79.39;95127.47;5074154;28;20020;-76
2023/09/16 02:40:53;;;;;;;14.82;12.77;;;;;;;17.73;79.19;95134.84;5039386;28;20082;-76
2023/09/16 02:43:18;;;;;;;13.77;12.40;;;;;;;17.76;79.29;95142.41;5039752;28;20052;-76
2023/09/16 02:45:44;;;;;;;13.57;11.48;;;;;;;17.75;79.09;95136.34;5056167;28;20021;-76
2023/09/16 02:48:10;;;;;;;13.32;11.93;;;;;;;17.67;79.12;95138.97;5056117;28;20037;-76
2023/09/16 02:50:38;;;;;;;13.35;11.63;;;;;;;17.86;78.82;95143.94;5039117;28;20078;-76
2023/09/16 02:53:04;;;;;;;12.60;11.30;;;;;;;17.80;78.50;95147.22;5072678;28;20036;-76
2023/09/16 02:55:33;;;;;;;14.68;12.98;;;;;;;17.69;78.71;95146.66;5072803;28;20065;-76
2023/09/16 02:57:59;;;;;;;14.52;12.90;;;;;;;17.52;79.35;95145.81;5072717;28;20047;-76
2023/09/16 03:00:25;;;;;;;14.40;12.80;;;;;;;17.57;79.48;95160.09;5072704;28;20066;-76
2023/09/16 03:02:50;;;;;;;12.65;11.43;;;;;;;17.62;79.53;95151.75;5072003;28;20068;-76
2023/09/16 03:05:16;;;;;;;13.80;12.32;;;;;;;17.57;79.42;95154.03;5055643;28;20033;-76
2023/09/16 03:07:41;;;;;;;15.45;12.60;;;;;;;17.62;79.54;95149.13;5055633;28;20024;-76
2023/09/16 03:10:07;;;;;;;13.65;12.02;;;;;;;17.77;79.05;95159.81;5055597;28;20537;-76
2023/09/16 03:12:32;;;;;;;14.18;12.00;;;;;;;17.84;78.67;95164.28;5072426;28;20457;-76
2023/09/16 03:14:58;;;;;;;13.45;11.88;;;;;;;17.66;78.73;95168.81;5055679;28;20035;-75
2023/09/16 03:17:23;;;;;;;13.18;11.82;;;;;;;17.57;79.73;95172.44;5072230;28;20036;-76
2023/09/16 03:19:49;;;;;;;13.45;11.98;;;;;;;17.54;80.12;95178.00;5055338;28;20433;-76
2023/09/16 03:22:14;;;;;;;14.45;12.93;;;;;;;17.39;80.40;95164.69;5073694;28;20462;-76
2023/09/16 03:24:40;;;;;;;13.13;11.82;;;;;;;17.49;80.49;95167.97;5055453;28;20086;-76
2023/09/16 03:27:05;;;;;;;13.80;12.48;;;;;;;17.60;80.07;95169.47;5038879;28;20062;-76
2023/09/16 03:29:31;;;;;;;15.55;12.68;;;;;;;17.39;80.69;95152.38;5073354;28;20037;-76
2023/09/16 03:31:56;;;;;;;15.18;13.68;;;;;;;17.47;80.75;95171.72;5038465;28;20502;-76
2023/09/16 03:34:21;;;;;;;14.75;12.27;;;;;;;17.43;80.94;95166.81;5071811;28;20142;-76
2023/09/16 03:36:47;;;;;;;13.40;12.10;;;;;;;17.41;81.11;95165.31;5072161;28;20024;-76
2023/09/16 03:39:12;;;;;;;14.18;12.77;;;;;;;17.49;80.90;95169.78;5071548;28;20045;-76
2023/09/16 03:41:38;;;;;;;14.75;13.15;;;;;;;17.54;81.12;95176.19;5055112;28;20460;-76
2023/09/16 03:44:04;;;;;;;14.43;12.93;;;;;;;17.56;80.88;95176.03;5054086;28;20040;-76
2023/09/16 03:46:31;;;;;;;14.63;13.07;;;;;;;17.58;80.85;95167.03;5054406;28;20086;-75
2023/09/16 03:48:56;;;;;;;17.73;13.57;;;;;;;17.48;81.36;95187.34;5072540;28;20143;-76
2023/09/16 03:51:22;;;;;;;18.15;13.80;;;;;;;17.45;81.49;95186.84;5038252;28;20526;-76
2023/09/16 03:53:47;;;;;;;14.32;12.80;;;;;;;17.64;80.22;95187.38;5055022;28;20035;-76
2023/09/16 03:56:13;;;;;;;14.63;13.10;;;;;;;17.72;79.88;95196.25;5038017;28;20032;-76
2023/09/16 03:58:38;;;;;;;14.98;12.68;;;;;;;17.59;80.10;95189.66;5072470;28;20123;-76
2023/09/16 04:01:04;;;;;;;13.82;12.43;;;;;;;17.64;80.06;95197.06;5054516;28;20387;-76
2023/09/16 04:03:30;;;;;;;14.32;12.82;;;;;;;17.70;80.27;95188.53;5054602;28;20066;-76
2023/09/16 04:05:58;;;;;;;14.75;12.90;;;;;;;17.87;80.01;95210.44;5054296;28;20422;-76
2023/09/16 04:08:26;;;;;;;13.68;12.27;;;;;;;17.79;80.02;95213.88;5054651;28;20111;-76
2023/09/16 04:10:52;;;;;;;16.75;12.73;;;;;;;17.72;79.70;95215.47;5070766;28;20518;-76
2023/09/16 04:13:18;;;;;;;14.75;12.25;;;;;;;17.75;79.82;95220.41;5037772;28;20120;-76
2023/09/16 04:15:43;;;;;;;14.15;12.65;;;;;;;17.83;80.06;95232.78;5037745;28;20020;-76
2023/09/16 04:18:09;;;;;;;13.93;12.07;;;;;;;17.76;79.60;95221.22;5072214;28;20035;-76
2023/09/16 04:20:35;;;;;;;14.73;13.23;;;;;;;17.76;79.92;95232.56;5037844;28;20043;-76
2023/09/16 04:23:00;;;;;;;13.98;12.18;;;;;;;17.77;79.80;95238.63;5037901;28;20036;-76
2023/09/16 04:25:26;;;;;;;17.10;12.73;;;;;;;17.75;80.10;95230.94;5070907;28;20093;-76
2023/09/16 04:27:51;;;;;;;16.58;12.57;;;;;;;17.94;79.80;95235.09;5054241;28;20029;-75
2023/09/16 04:30:17;;;;;;;14.07;12.68;;;;;;;17.82;80.35;95231.13;5053927;28;20464;-75
2023/09/16 04:32:42;;;;;;;14.45;12.90;;;;;;;17.78;80.37;95214.88;5037289;28;20039;-75
2023/09/16 04:35:08;;;;;;;15.55;12.48;;;;;;;17.78;80.46;95221.91;5037448;28;20028;-76
2023/09/16 04:37:36;;;;;;;13.05;11.73;;;;;;;17.75;80.24;95202.03;5053815;28;20024;-76
2023/09/16 04:40:07;;;;;;;14.82;12.85;;;;;;;17.77;80.37;95213.16;5054001;28;20033;-76
2023/09/16 04:42:32;;;;;;;14.30;12.45;;;;;;;17.74;80.52;95218.75;5055007;28;20402;-76
2023/09/16 04:44:58;;;;;;;17.10;12.90;;;;;;;17.70;80.93;95217.44;5053838;28;20039;-76
2023/09/16 04:47:25;;;;;;;14.15;12.65;;;;;;;17.72;80.58;95212.84;5053813;28;20499;-76
2023/09/16 04:49:50;;;;;;;16.85;13.63;;;;;;;17.73;80.66;95201.34;5053606;28;20040;-76
2023/09/16 04:52:16;;;;;;;14.43;12.85;;;;;;;17.82;80.50;95228.50;5037438;28;20456;-76
2023/09/16 04:54:42;;;;;;;14.82;13.05;;;;;;;17.83;80.49;95217.84;5037391;28;20028;-76
2023/09/16 04:57:07;;;;;;;14.82;13.20;;;;;;;17.90;80.55;95220.63;5053399;28;20031;-76
2023/09/16 04:59:33;;;;;;;16.02;13.73;;;;;;;17.95;80.66;95225.41;5053948;28;20470;-76
2023/09/16 05:01:59;;;;;;;14.85;12.70;;;;;;;17.91;80.63;95229.31;5070422;28;20398;-76
2023/09/16 05:04:24;;;;;;;15.27;13.77;;;;;;;18.03;81.17;95238.56;5070273;28;20032;-76
2023/09/16 05:06:50;;;;;;;15.70;14.05;;;;;;;18.04;80.62;95243.63;5053444;28;20039;-76
2023/09/16 05:09:15;;;;;;;15.20;13.38;;;;;;;17.74;81.02;95237.13;5036525;28;20032;-76
2023/09/16 05:11:43;;;;;;;15.63;13.68;;;;;;;17.84;80.61;95247.56;5053364;28;20494;-76
2023/09/16 05:14:08;;;;;;;14.63;13.13;;;;;;;17.69;81.09;95246.50;5053521;28;20601;-76
2023/09/16 05:16:34;;;;;;;14.27;12.38;;;;;;;17.67;81.33;95249.28;5053518;28;20035;-76
2023/09/16 05:18:59;;;;;;;14.68;13.30;;;;;;;17.51;81.60;95226.41;5071162;28;20093;-76
2023/09/16 05:21:25;;;;;;;14.32;12.82;;;;;;;17.58;81.88;95234.50;5070119;28;20119;-76
2023/09/16 05:23:53;;;;;;;16.30;13.77;;;;;;;17.48;82.18;95233.81;5053395;28;20109;-76
2023/09/16 05:26:19;;;;;;;18.20;14.40;;;;;;;17.51;82.26;95250.06;5053046;28;20032;-76
2023/09/16 05:28:44;;;;;;;18.58;13.30;;;;;;;17.58;81.46;95235.31;5070107;28;20035;-76
2023/09/16 05:31:10;;;;;;;15.68;14.07;;;;;;;17.67;81.40;95251.91;5053155;28;20043;-76
2023/09/16 05:33:35;;;;;;;15.15;13.13;;;;;;;17.69;81.56;95259.63;5053258;28;20059;-76
2023/09/16 05:36:01;;;;;;;15.18;13.57;;;;;;;17.83;81.84;95261.69;5052810;28;20403;-76
2023/09/16 05:38:26;;;;;;;15.25;13.57;;;;;;;17.68;82.46;95261.44;5053019;28;20082;-76
2023/09/16 05:40:51;;;;;;;16.30;13.95;;;;;;;17.61;82.50;95253.38;5036341;28;20033;-76
2023/09/16 05:43:17;;;;;;;15.40;13.77;;;;;;;17.65;81.96;95259.13;5036563;28;20410;-76
2023/09/16 05:45:43;;;;;;;14.88;13.38;;;;;;;17.70;81.68;95258.66;5036201;28;20495;-76
2023/09/16 05:48:09;;;;;;;17.30;13.45;;;;;;;17.62;82.18;95262.06;5053102;28;20062;-76
2023/09/16 05:50:34;;;;;;;16.35;14.05;;;;;;;17.65;81.96;95261.75;5052806;28;20392;-76
2023/09/16 05:52:59;;;;;;;14.20;12.77;;;;;;;17.80;81.78;95264.59;5069773;28;20041;-77
2023/09/16 05:55:25;;;;;;;15.98;13.57;;;;;;;17.77;81.63;95260.47;5069342;28;20024;-76
2023/09/16 05:57:50;;;;;;;17.20;14.18;;;;;;;17.88;80.75;95258.56;5036295;28;20035;-76
2023/09/16 06:00:16;;;;;;;14.65;13.02;;;;;;;17.95;79.99;95270.91;5052669;28;20418;-76
2023/09/16 06:02:41;;;;;;;15.73;14.05;;;;;;;17.53;80.99;95223.66;5052611;28;20273;-76
2023/09/16 06:05:08;;;;;;;15.10;13.50;;;;;;;17.76;81.09;95247.50;5069260;28;20041;-76
2023/09/16 06:07:34;;;;;;;14.65;13.20;;;;;;;17.69;80.86;95257.00;5036550;28;20031;-76
2023/09/16 06:09:59;;;;;;;15.50;13.95;;;;;;;17.63;81.31;95259.31;5039942;28;20044;-76
2023/09/16 06:12:24;;;;;;;16.77;14.40;;;;;;;17.61;81.76;95255.19;5056734;28;20052;-76
2023/09/16 06:14:50;;;;;;;16.83;14.48;;;;;;;17.56;82.53;95262.72;5073098;28;20034;-76
2023/09/16 06:17:18;;;;;;;15.80;14.10;;;;;;;17.45;82.83;95261.19;5056752;28;20033;-76
2023/09/16 06:19:43;;;;;;;16.65;14.63;;;;;;;17.71;82.25;95276.88;5057048;28;20055;-76
2023/09/16 06:22:10;;;;;;;18.15;14.95;;;;;;;17.91;82.26;95276.63;5073346;28;20442;-76
2023/09/16 06:24:35;;;;;;;16.20;14.48;;;;;;;17.93;81.78;95275.50;5040322;28;20511;-76
2023/09/16 06:27:01;;;;;;;16.08;14.20;;;;;;;17.85;81.34;95265.78;5073421;28;20114;-76
2023/09/16 06:29:26;;;;;;;16.20;14.55;;;;;;;17.75;82.13;95264.25;5073192;28;20028;-76
2023/09/16 06:31:52;;;;;;;15.23;13.63;;;;;;;17.79;81.77;95250.66;5056383;28;20473;-76
2023/09/16 06:34:17;;;;;;;15.77;14.20;;;;;;;17.79;82.53;95257.72;5056128;28;20052;-76
2023/09/16 06:36:43;;;;;;;18.17;14.93;;;;;;;17.72;83.02;95268.03;5039172;28;20024;-76
2023/09/16 06:39:11;;;;;;;16.67;14.70;;;;;;;17.65;83.24;95267.00;5072646;28;20049;-76
2023/09/16 06:41:36;;;;;;;18.67;15.93;;;;;;;17.93;82.99;95274.66;5072623;28;20029;-76
2023/09/16 06:44:02;;;;;;;17.35;15.35;;;;;;;17.31;85.46;95274.94;5038979;28;20033;-76
2023/09/16 06:46:28;;;;;;;18.58;16.60;;;;;;;17.07;87.15;95258.06;5072479;28;20024;-76
2023/09/16 06:48:53;;;;;;;19.10;16.80;;;;;;;17.34;86.96;95262.31;5039218;28;20029;-76
2023/09/16 06:51:19;;;;;;;21.00;16.35;;;;;;;17.26;86.98;95257.00;5072465;28;20048;-76
2023/09/16 06:53:44;;;;;;;19.52;17.40;;;;;;;17.22;87.00;95260.09;5072508;28;20029;-76
2023/09/16 06:56:10;;;;;;;21.35;17.80;;;;;;;17.19;87.45;95253.38;5055810;28;20037;-76
2023/09/16 06:58:35;;;;;;;21.80;17.60;;;;;;;17.39;87.56;95283.66;5039435;28;20039;-77
2023/09/16 07:01:10;;;;;;;19.77;17.52;;;;;;;17.53;86.98;95302.44;5055643;28;20032;-76
2023/09/16 07:03:35;;;;;;;19.30;16.15;;;;;;;17.75;86.30;95293.16;5056097;28;20040;-76
2023/09/16 07:06:01;;;;;;;18.92;16.88;;;;;;;17.71;86.64;95292.63;5055881;28;20024;-76
2023/09/16 07:08:27;;;;;;;19.60;17.58;;;;;;;17.65;86.94;95304.59;5039196;28;20029;-76
2023/09/16 07:10:53;;;;;;;17.60;15.77;;;;;;;17.75;85.74;95301.03;5039110;28;20033;-76
2023/09/16 07:13:19;;;;;;;17.48;15.57;;;;;;;17.93;84.79;95306.22;5072492;28;20060;-76
2023/09/16 07:15:52;;;;;;;18.25;15.85;;;;;;;17.90;85.21;95301.28;5038810;28;20035;-77
2023/09/16 07:18:18;;;;;;;17.65;15.48;;;;;;;17.96;84.06;95295.38;5072515;28;20044;-79
2023/09/16 07:20:43;;;;;;;16.77;14.98;;;;;;;17.82;84.12;95268.72;5072288;28;20479;-79
2023/09/16 07:23:09;;;;;;;16.42;14.50;;;;;;;17.86;84.52;95288.47;5055502;28;20116;-78
2023/09/16 07:25:34;;;;;;;16.95;15.30;;;;;;;17.90;85.17;95296.03;5073513;28;20394;-78
2023/09/16 07:28:02;;;;;;;15.02;13.05;;;;;;;17.93;84.34;95285.19;5073663;28;20090;-79
2023/09/16 07:30:28;;;;;;;15.80;12.90;;;;;;;18.19;81.82;95280.66;5039632;28;20024;-78
2023/09/16 07:32:54;;;;;;;13.20;11.45;;;;;;;18.35;81.02;95282.44;5055210;28;20040;-78
2023/09/16 07:35:19;;;;;;;15.75;14.00;;;;;;;17.81;85.69;95288.09;5072120;28;20028;-78
2023/09/16 07:37:44;;;;;;;16.30;13.95;;;;;;;18.08;84.30;95296.72;5072302;28;20025;-79
2023/09/16 07:40:10;;;;;;;16.80;14.93;;;;;;;18.02;84.45;95284.22;5055359;28;20114;-78
2023/09/16 07:42:36;;;;;;;17.60;15.70;;;;;;;18.16;83.86;95293.28;5071923;28;20094;-78
2023/09/16 07:45:03;;;;;;;18.63;16.70;;;;;;;18.06;84.47;95280.28;5071926;28;20047;-79
2023/09/16 07:47:28;;;;;;;19.20;17.30;;;;;;;18.11;84.81;95285.88;5071959;28;20585;-77
2023/09/16 07:49:54;;;;;;;20.23;18.15;;;;;;;18.15;85.05;95284.56;5038292;28;20056;-78
2023/09/16 07:52:19;;;;;;;18.65;16.70;;;;;;;18.35;83.94;95279.00;5071711;28;20037;-78
2023/09/16 07:54:45;;;;;;;17.70;15.90;;;;;;;18.56;83.65;95295.13;5055101;28;20062;-78
2023/09/16 07:57:12;;;;;;;18.80;16.15;;;;;;;18.50;83.06;95303.69;5071866;28;20032;-78
2023/09/16 07:59:37;;;;;;;18.02;16.13;;;;;;;18.40;83.07;95306.44;5071506;28;20032;-79
2023/09/16 08:02:03;;;;;;;18.92;16.67;;;;;;;18.35;83.27;95297.41;5055083;28;20089;-79
2023/09/16 08:04:28;;;;;;;16.83;15.13;;;;;;;18.42;82.91;95301.03;5054901;28;20525;-79
2023/09/16 08:06:56;;;;;;;18.70;16.42;;;;;;;18.43;82.20;95281.63;5071566;28;20403;-79
2023/09/16 08:09:21;;;;;;;18.27;16.42;;;;;;;18.39;82.27;95275.06;5071274;28;20033;-79
2023/09/16 08:11:48;;;;;;;19.13;17.17;;;;;;;18.37;83.16;95285.75;5071609;28;20027;-79
2023/09/16 08:14:13;;;;;;;21.23;16.98;;;;;;;18.42;82.68;95285.25;5054851;28;20029;-79
2023/09/16 08:16:39;;;;;;;20.33;18.30;;;;;;;18.43;82.64;95271.13;5055005;28;20035;-79
2023/09/16 08:19:04;;;;;;;19.92;17.88;;;;;;;18.47;83.08;95283.78;5054337;28;20498;-79
2023/09/16 08:21:30;;;;;;;19.95;17.92;;;;;;;18.30;83.00;95279.47;5071325;28;20137;-79
2023/09/16 08:23:55;;;;;;;21.33;19.05;;;;;;;18.41;83.52;95294.94;5071355;28;20040;-79
2023/09/16 08:26:21;;;;;;;20.10;17.98;;;;;;;18.59;83.51;95296.59;5054588;28;20029;-79
2023/09/16 08:28:46;;;;;;;22.67;19.70;;;;;;;18.44;83.58;95292.00;5054296;28;20431;-79
2023/09/16 08:31:12;;;;;;;23.15;20.35;;;;;;;18.46;83.03;95297.91;5053778;28;20035;-79
2023/09/16 08:33:37;;;;;;;23.67;21.13;;;;;;;18.46;83.07;95315.50;5054444;28;20422;-79
2023/09/16 08:36:03;;;;;;;23.85;20.65;;;;;;;18.46;82.85;95324.22;5054244;28;20029;-79
2023/09/16 08:38:28;;;;;;;22.27;20.00;;;;;;;18.68;82.46;95306.94;5070617;28;20025;-78
2023/09/16 08:41:30;;;;;;;23.45;20.88;;;;;;;18.58;81.95;95306.28;5037489;28;20024;-79
2023/09/16 08:43:58;;;;;;;22.30;19.90;;;;;;;18.69;80.87;95313.88;5036467;28;20047;-79
2023/09/16 08:46:23;;;;;;;22.73;18.27;;;;;;;18.78;81.36;95321.78;5070743;28;20021;-79
2023/09/16 08:48:50;;;;;;;22.60;19.80;;;;;;;18.78;81.91;95317.34;5037515;28;20036;-79
2023/09/16 08:51:17;;;;;;;20.02;18.00;;;;;;;18.68;80.83;95320.09;5054173;28;20075;-79
2023/09/16 08:53:42;;;;;;;26.40;22.08;;;;;;;18.62;80.62;95310.25;5037543;28;20029;-78
2023/09/16 08:56:08;;;;;;;22.05;19.60;;;;;;;18.66;80.98;95329.97;5053979;28;20154;-78
2023/09/16 08:58:34;;;;;;;24.63;21.70;;;;;;;18.85;81.29;95338.56;5054022;28;20449;-79
2023/09/16 09:01:01;;;;;;;24.02;20.98;;;;;;;18.83;81.32;95330.00;5053977;28;20529;-78
2023/09/16 09:03:27;;;;;;;26.35;23.40;;;;;;;18.72;81.37;95323.22;5070227;28;20111;-78
2023/09/16 09:05:53;;;;;;;23.67;20.33;;;;;;;18.75;81.67;95342.19;5053753;28;20016;-78
2023/09/16 09:08:19;;;;;;;25.23;21.20;;;;;;;18.81;81.65;95337.25;5054013;28;20037;-78
2023/09/16 09:10:44;;;;;;;22.83;19.10;;;;;;;18.84;81.29;95331.66;5070483;28;20074;-80
2023/09/16 09:13:13;;;;;;;26.85;20.77;;;;;;;19.03;80.60;95326.06;5036801;28;20040;-79
2023/09/16 09:15:39;;;;;;;19.02;17.08;;;;;;;19.03;80.37;95331.31;5053693;28;20025;-78
2023/09/16 09:18:05;;;;;;;17.88;15.98;;;;;;;19.01;79.41;95327.22;5053497;28;20032;-78
2023/09/16 09:20:30;;;;;;;19.85;17.88;;;;;;;19.24;79.90;95322.06;5053678;28;20528;-78
2023/09/16 09:22:56;;;;;;;22.50;17.63;;;;;;;19.34;79.19;95328.78;5053454;28;20124;-78
2023/09/16 09:25:23;;;;;;;15.25;13.73;;;;;;;19.31;76.64;95323.03;5053692;28;20029;-78
2023/09/16 09:27:49;;;;;;;23.02;18.50;;;;;;;19.37;77.12;95319.72;5070535;28;20025;-77
2023/09/16 09:30:15;;;;;;;18.42;15.02;;;;;;;19.48;76.65;95324.63;5070029;28;20039;-78
2023/09/16 09:32:45;;;;;;;17.42;15.60;;;;;;;19.61;76.57;95324.94;5053339;28;20437;-78
2023/09/16 09:35:11;;;;;;;19.77;15.63;;;;;;;19.64;76.47;95321.94;5070065;28;20036;-78
2023/09/16 09:37:37;;;;;;;17.38;14.18;;;;;;;19.86;75.73;95301.09;5053510;28;20036;-78
2023/09/16 09:40:11;;;;;;;14.43;12.88;;;;;;;20.22;73.53;95316.41;5036760;28;20521;-77
2023/09/16 09:42:43;;;;;;;13.55;12.15;;;;;;;19.98;72.88;95320.84;5055779;28;20037;-77
2023/09/16 09:45:10;;;;;;;12.85;11.55;;;;;;;20.24;72.73;95311.78;5057058;28;20043;-77
2023/09/16 09:47:38;;;;;;;12.82;11.63;;;;;;;20.45;73.48;95311.97;5074401;28;20105;-77
2023/09/16 09:50:05;;;;;;;12.05;10.77;;;;;;;20.42;70.09;95301.78;5057486;28;20048;-77
2023/09/16 09:52:30;;;;;;;12.65;11.10;;;;;;;20.63;71.09;95297.69;5073806;28;20028;-77
2023/09/16 09:54:57;;;;;;;14.10;12.68;;;;;;;20.52;72.16;95302.34;5040347;28;20056;-77
2023/09/16 09:57:22;;;;;;;15.15;13.73;;;;;;;20.38;72.15;95295.19;5074215;28;20086;-77
2023/09/16 09:59:48;;;;;;;13.38;12.07;;;;;;;20.83;69.42;95303.28;5040744;28;20040;-78
2023/09/16 10:02:14;;;;;;;10.85;9.60;;;;;;;20.91;68.69;95304.03;5040632;28;20035;-77
2023/09/16 10:04:39;;;;;;;10.93;9.93;;;;;;;20.93;69.07;95307.31;5040246;28;20450;-77
2023/09/16 10:07:05;;;;;;;23.23;16.95;;;;;;;20.94;72.45;95305.50;5040445;28;20483;-77
2023/09/16 10:09:30;;;;;;;16.17;14.30;;;;;;;21.05;72.86;95306.91;5073664;28;20479;-77
2023/09/16 10:11:56;;;;;;;16.75;14.45;;;;;;;21.36;71.00;95302.28;5056607;28;20033;-78
2023/09/16 10:14:22;;;;;;;15.30;12.60;;;;;;;21.62;69.28;95299.22;5040034;28;21691;-77
2023/09/16 10:16:47;;;;;;;13.43;11.82;;;;;;;21.47;67.62;95297.56;5040304;28;20047;-77
2023/09/16 10:19:13;;;;;;;13.57;12.18;;;;;;;21.57;67.71;95290.19;5056541;28;20041;-77
2023/09/16 10:21:39;;;;;;;11.30;10.18;;;;;;;21.41;66.81;95292.00;5039986;28;20025;-78
2023/09/16 10:24:05;;;;;;;10.57;9.57;;;;;;;21.54;66.11;95291.38;5056067;28;20032;-77
2023/09/16 10:26:31;;;;;;;10.70;9.68;;;;;;;21.57;66.49;95282.28;5056709;28;20035;-77
2023/09/16 10:28:56;;;;;;;10.35;9.32;;;;;;;21.53;63.79;95283.63;5039358;28;20029;-77
2023/09/16 10:31:22;;;;;;;11.38;8.70;;;;;;;21.57;64.59;95285.72;5056052;28;20036;-77
2023/09/16 10:33:48;;;;;;;10.20;8.40;;;;;;;21.41;63.73;95286.72;5056269;28;20468;-76
2023/09/16 10:36:14;;;;;;;7.20;6.50;;;;;;;21.40;62.85;95287.75;5039432;28;20029;-77
2023/09/16 10:38:39;;;;;;;14.70;7.82;;;;;;;21.50;63.71;95279.53;5039374;28;20021;-76
2023/09/16 10:41:05;;;;;;;8.57;7.22;;;;;;;21.37;64.43;95247.66;5039177;28;20036;-76
2023/09/16 10:43:31;;;;;;;9.00;8.20;;;;;;;21.52;64.88;95280.16;5055915;28;20037;-77
2023/09/16 10:45:56;;;;;;;8.55;7.15;;;;;;;21.71;63.11;95281.44;5072545;28;20251;-77
2023/09/16 10:48:22;;;;;;;8.90;7.95;;;;;;;21.93;63.82;95268.25;5039262;28;20024;-78
2023/09/16 10:50:47;;;;;;;9.25;7.60;;;;;;;22.08;63.39;95271.69;5073628;28;20060;-77
2023/09/16 10:53:25;;;;;;;8.30;7.50;;;;;;;22.27;62.32;95265.81;5038728;28;20031;-77
2023/09/16 10:55:54;;;;;;;7.90;7.10;;;;;;;22.48;60.46;95256.22;5056041;28;20103;-77
2023/09/16 10:58:36;;;;;;;7.28;6.53;;;;;;;22.29;60.99;95253.22;5072238;28;20499;-77
2023/09/16 11:01:02;;;;;;;6.97;6.18;;;;;;;22.21;60.55;95249.88;5056861;28;20032;-77
2023/09/16 11:03:31;;;;;;;7.28;5.82;;;;;;;22.37;59.75;95236.41;5055772;28;20349;-77
2023/09/16 11:05:58;;;;;;;7.15;6.45;;;;;;;22.63;59.03;95243.75;5055480;28;20032;-77
2023/09/16 11:08:24;;;;;;;7.85;6.30;;;;;;;22.61;60.04;95219.28;5039031;28;20032;-77
2023/09/16 11:10:50;;;;;;;8.43;7.22;;;;;;;22.41;61.90;95220.94;5038978;28;20128;-77
2023/09/16 11:13:16;;;;;;;9.15;6.70;;;;;;;22.61;61.43;95243.09;5055359;28;20141;-78
2023/09/16 11:15:41;;;;;;;7.78;6.97;;;;;;;22.74;60.32;95235.28;5055484;28;20033;-77